Middleton, WI (53562)

7:11 PM CST on December 09, 2016 (GMT -0600)
Sak's Woods, Middleton | | Change Station
Active Advisory: Winter Storm Watch

Elev 948 ft 43.10 °N, 89.50 °W | Updated 31 seconds ago

Clear
Clear
16.9 °F
Feels Like 17 °F
N
0.0
Wind Variable Wind from SW

Today
High -- | Low -- °F
--% Chance of Precip.
Yesterday
High -- | Low -- °F
Precip. -- in
Pressure 30.47 in
Visibility 10.0 miles
Clouds Clear
Windchill 17 °F
Dew Point 12 °F
Humidity 83%
Rainfall 0.00 in
Snow Depth Not available.
7:18 AM 4:22 PM
Waxing Gibbous, 79% visible
METAR KC29 100055Z AUTO 24004KT 10SM CLR M07/M11 A3047 RMK AO1 T10711108
Pressure 30.47 in
Visibility 10.0 miles
Clouds Clear
Windchill 17 °F
Dew Point 12 °F
Humidity 83%
Rainfall 0.00 in
Snow Depth Not available.
7:18 AM 4:22 PM
Waxing Gibbous, 79% visible
METAR KC29 100055Z AUTO 24004KT 10SM CLR M07/M11 A3047 RMK AO1 T10711108

10-Day Weather Forecast

Almanac

Astronomy

Dec. 09, 2016 Rise Set
Actual Time
Civil Twilight
Nautical Twilight
Astronomical Twilight
Moon
Length of Visible Light
Length of Day
Tomorrow will be .
, % of the Moon is Illuminated

Today's Extremes

State Highs State Lows

Community

WunderPhotos

Upload Photos

1,956,534 photos uploaded!

WunderBlog® & News

Nearby

Air Quality

  Air Quality AQ Index Pollutant
Not available.

Snow Depth

Station Depth Elevation

Earthquake Activity

City Distance Mag. Time & Date
Minimum magnitude displayed is 2.5.

Coastal Water Temperatures

Place Temperature

Stations

Nearby Weather Stations

Station Location Temp. Windchill Dew Point Humidity Wind Precip. Elev Updated Type
                   

Watches & Warnings

Winter Storm Watch
Issued: 2:50 PM CST Dec. 9, 2016 – National Weather Service

... Winter Storm Watch remains in effect from Saturday afternoon
through Sunday evening...

A Winter Storm Watch remains in effect from Saturday afternoon
through Sunday evening.

* Timing... snow developing later Saturday afternoon continuing
through Sunday.

* Snow accumulations... 6 to 10 inches.

* Winds... southeast winds 10 to 15 mph with gusts to 20
mph... turning west later Sunday night into Monday morning.

* Impacts... hazardous travel conditions developing Saturday
night continuing into Sunday. Reduced visibility due to
falling snow and some drifting snow.

Precautionary/preparedness actions...

A Winter Storm Watch means there is a potential for significant
snow... sleet... or ice accumulations that may impact travel.
Continue to monitor the latest forecasts.